sensor_id;sensor_type;location;lat;lon;timestamp;P1;durP1;ratioP1;P2;durP2;ratioP2
24559;SDS011;12727;49.934;8.656;2024-02-04T00:01:38;2.53;;;2.30;;
24559;SDS011;12727;49.934;8.656;2024-02-04T00:04:04;2.97;;;2.30;;
24559;SDS011;12727;49.934;8.656;2024-02-04T00:06:30;3.10;;;2.00;;
24559;SDS011;12727;49.934;8.656;2024-02-04T00:08:55;3.00;;;2.47;;
24559;SDS011;12727;49.934;8.656;2024-02-04T00:11:21;2.92;;;2.35;;
24559;SDS011;12727;49.934;8.656;2024-02-04T00:13:47;2.53;;;2.10;;
24559;SDS011;12727;49.934;8.656;2024-02-04T00:16:12;3.15;;;2.20;;
24559;SDS011;12727;49.934;8.656;2024-02-04T00:18:38;3.75;;;2.15;;
24559;SDS011;12727;49.934;8.656;2024-02-04T00:21:04;2.90;;;2.10;;
24559;SDS011;12727;49.934;8.656;2024-02-04T00:23:29;2.55;;;2.20;;
24559;SDS011;12727;49.934;8.656;2024-02-04T00:25:55;2.30;;;2.10;;
24559;SDS011;12727;49.934;8.656;2024-02-04T00:28:21;2.38;;;1.90;;
24559;SDS011;12727;49.934;8.656;2024-02-04T00:30:46;2.05;;;1.85;;
24559;SDS011;12727;49.934;8.656;2024-02-04T00:33:14;2.63;;;2.20;;
24559;SDS011;12727;49.934;8.656;2024-02-04T00:35:40;2.97;;;2.15;;
24559;SDS011;12727;49.934;8.656;2024-02-04T00:38:06;2.88;;;2.08;;
24559;SDS011;12727;49.934;8.656;2024-02-04T00:40:33;3.70;;;2.40;;
24559;SDS011;12727;49.934;8.656;2024-02-04T00:42:59;2.92;;;2.03;;
24559;SDS011;12727;49.934;8.656;2024-02-04T00:45:25;2.97;;;1.92;;
24559;SDS011;12727;49.934;8.656;2024-02-04T00:47:51;2.50;;;1.70;;
24559;SDS011;12727;49.934;8.656;2024-02-04T00:50:16;2.35;;;2.15;;
24559;SDS011;12727;49.934;8.656;2024-02-04T00:52:42;2.00;;;1.80;;
24559;SDS011;12727;49.934;8.656;2024-02-04T00:55:08;2.25;;;2.05;;
24559;SDS011;12727;49.934;8.656;2024-02-04T00:57:33;2.30;;;1.98;;
24559;SDS011;12727;49.934;8.656;2024-02-04T00:59:59;3.38;;;2.05;;
24559;SDS011;12727;49.934;8.656;2024-02-04T01:02:25;2.35;;;2.00;;
24559;SDS011;12727;49.934;8.656;2024-02-04T01:04:50;2.60;;;2.13;;
24559;SDS011;12727;49.934;8.656;2024-02-04T01:07:16;2.65;;;1.88;;
24559;SDS011;12727;49.934;8.656;2024-02-04T01:09:42;2.90;;;1.80;;
24559;SDS011;12727;49.934;8.656;2024-02-04T01:12:07;3.35;;;1.83;;
24559;SDS011;12727;49.934;8.656;2024-02-04T01:14:33;3.25;;;2.00;;
24559;SDS011;12727;49.934;8.656;2024-02-04T01:16:59;1.90;;;1.70;;
24559;SDS011;12727;49.934;8.656;2024-02-04T01:19:25;2.33;;;1.83;;
24559;SDS011;12727;49.934;8.656;2024-02-04T01:21:50;1.80;;;1.50;;
24559;SDS011;12727;49.934;8.656;2024-02-04T01:24:16;3.08;;;1.80;;
24559;SDS011;12727;49.934;8.656;2024-02-04T01:26:42;1.98;;;1.60;;
24559;SDS011;12727;49.934;8.656;2024-02-04T01:29:07;1.52;;;1.42;;
24559;SDS011;12727;49.934;8.656;2024-02-04T01:31:33;1.58;;;1.40;;
24559;SDS011;12727;49.934;8.656;2024-02-04T01:33:58;2.00;;;1.80;;
24559;SDS011;12727;49.934;8.656;2024-02-04T01:36:24;2.00;;;1.70;;
24559;SDS011;12727;49.934;8.656;2024-02-04T01:38:49;2.45;;;1.55;;
24559;SDS011;12727;49.934;8.656;2024-02-04T01:41:15;4.25;;;1.25;;
24559;SDS011;12727;49.934;8.656;2024-02-04T01:43:41;1.35;;;0.98;;
24559;SDS011;12727;49.934;8.656;2024-02-04T01:46:06;1.50;;;1.40;;
24559;SDS011;12727;49.934;8.656;2024-02-04T01:48:33;1.50;;;1.40;;
24559;SDS011;12727;49.934;8.656;2024-02-04T01:50:59;2.15;;;1.40;;
24559;SDS011;12727;49.934;8.656;2024-02-04T01:53:26;1.90;;;1.45;;
24559;SDS011;12727;49.934;8.656;2024-02-04T01:55:53;1.95;;;1.48;;
24559;SDS011;12727;49.934;8.656;2024-02-04T01:58:20;2.65;;;1.65;;
24559;SDS011;12727;49.934;8.656;2024-02-04T02:00:46;2.42;;;1.45;;
24559;SDS011;12727;49.934;8.656;2024-02-04T02:03:13;1.83;;;1.45;;
24559;SDS011;12727;49.934;8.656;2024-02-04T02:05:40;2.67;;;1.75;;
24559;SDS011;12727;49.934;8.656;2024-02-04T02:08:06;2.22;;;1.90;;
24559;SDS011;12727;49.934;8.656;2024-02-04T02:10:32;1.92;;;1.52;;
24559;SDS011;12727;49.934;8.656;2024-02-04T02:12:59;2.20;;;1.77;;
24559;SDS011;12727;49.934;8.656;2024-02-04T02:15:32;3.00;;;1.93;;
24559;SDS011;12727;49.934;8.656;2024-02-04T02:18:02;2.75;;;1.92;;
24559;SDS011;12727;49.934;8.656;2024-02-04T02:20:48;3.17;;;2.03;;
24559;SDS011;12727;49.934;8.656;2024-02-04T02:23:40;4.65;;;2.33;;
24559;SDS011;12727;49.934;8.656;2024-02-04T02:26:14;2.60;;;2.05;;
24559;SDS011;12727;49.934;8.656;2024-02-04T02:28:40;3.17;;;2.25;;
24559;SDS011;12727;49.934;8.656;2024-02-04T02:31:06;2.92;;;2.33;;
24559;SDS011;12727;49.934;8.656;2024-02-04T02:33:31;2.65;;;2.30;;
24559;SDS011;12727;49.934;8.656;2024-02-04T02:35:57;3.92;;;2.92;;
24559;SDS011;12727;49.934;8.656;2024-02-04T02:38:34;4.07;;;3.33;;
24559;SDS011;12727;49.934;8.656;2024-02-04T02:41:08;4.10;;;2.90;;
24559;SDS011;12727;49.934;8.656;2024-02-04T02:43:37;4.28;;;3.50;;
24559;SDS011;12727;49.934;8.656;2024-02-04T02:46:06;3.25;;;2.80;;
24559;SDS011;12727;49.934;8.656;2024-02-04T02:48:32;4.80;;;3.40;;
24559;SDS011;12727;49.934;8.656;2024-02-04T02:50:58;3.65;;;3.30;;
24559;SDS011;12727;49.934;8.656;2024-02-04T02:53:23;4.72;;;3.33;;
24559;SDS011;12727;49.934;8.656;2024-02-04T02:55:49;4.30;;;3.60;;
24559;SDS011;12727;49.934;8.656;2024-02-04T02:58:14;4.57;;;3.60;;
24559;SDS011;12727;49.934;8.656;2024-02-04T03:00:40;4.15;;;3.42;;
24559;SDS011;12727;49.934;8.656;2024-02-04T03:03:05;4.47;;;3.22;;
24559;SDS011;12727;49.934;8.656;2024-02-04T03:05:31;4.00;;;3.40;;
24559;SDS011;12727;49.934;8.656;2024-02-04T03:07:57;4.13;;;3.33;;
24559;SDS011;12727;49.934;8.656;2024-02-04T03:10:23;5.15;;;3.85;;
24559;SDS011;12727;49.934;8.656;2024-02-04T03:12:48;3.40;;;2.80;;
24559;SDS011;12727;49.934;8.656;2024-02-04T03:15:14;4.82;;;3.38;;
24559;SDS011;12727;49.934;8.656;2024-02-04T03:17:39;4.35;;;3.60;;
24559;SDS011;12727;49.934;8.656;2024-02-04T03:20:05;4.20;;;3.60;;
24559;SDS011;12727;49.934;8.656;2024-02-04T03:22:31;4.65;;;3.30;;
24559;SDS011;12727;49.934;8.656;2024-02-04T03:24:56;4.38;;;3.33;;
24559;SDS011;12727;49.934;8.656;2024-02-04T03:27:22;4.05;;;2.90;;
24559;SDS011;12727;49.934;8.656;2024-02-04T03:29:48;3.60;;;2.88;;
24559;SDS011;12727;49.934;8.656;2024-02-04T03:32:13;3.60;;;2.85;;
24559;SDS011;12727;49.934;8.656;2024-02-04T03:34:41;4.43;;;3.10;;
24559;SDS011;12727;49.934;8.656;2024-02-04T03:37:07;3.60;;;2.88;;
24559;SDS011;12727;49.934;8.656;2024-02-04T03:39:32;4.13;;;2.70;;
24559;SDS011;12727;49.934;8.656;2024-02-04T03:41:58;7.35;;;2.70;;
24559;SDS011;12727;49.934;8.656;2024-02-04T03:44:23;3.83;;;2.50;;
24559;SDS011;12727;49.934;8.656;2024-02-04T03:46:49;4.13;;;2.63;;
24559;SDS011;12727;49.934;8.656;2024-02-04T03:49:15;3.10;;;2.40;;
24559;SDS011;12727;49.934;8.656;2024-02-04T03:51:41;4.43;;;2.42;;
24559;SDS011;12727;49.934;8.656;2024-02-04T03:54:07;4.15;;;2.65;;
24559;SDS011;12727;49.934;8.656;2024-02-04T03:56:33;3.42;;;2.50;;
24559;SDS011;12727;49.934;8.656;2024-02-04T03:58:58;3.10;;;2.10;;
24559;SDS011;12727;49.934;8.656;2024-02-04T04:01:24;2.50;;;2.00;;
24559;SDS011;12727;49.934;8.656;2024-02-04T04:03:49;3.17;;;2.20;;
24559;SDS011;12727;49.934;8.656;2024-02-04T04:06:15;4.15;;;2.20;;
24559;SDS011;12727;49.934;8.656;2024-02-04T04:08:41;3.40;;;2.38;;
24559;SDS011;12727;49.934;8.656;2024-02-04T04:11:10;2.55;;;2.00;;
24559;SDS011;12727;49.934;8.656;2024-02-04T04:13:36;4.00;;;2.13;;
24559;SDS011;12727;49.934;8.656;2024-02-04T04:16:02;2.92;;;2.05;;
24559;SDS011;12727;49.934;8.656;2024-02-04T04:18:28;2.17;;;1.65;;
24559;SDS011;12727;49.934;8.656;2024-02-04T04:20:54;2.35;;;1.67;;
24559;SDS011;12727;49.934;8.656;2024-02-04T04:23:19;2.20;;;1.60;;
24559;SDS011;12727;49.934;8.656;2024-02-04T04:25:45;2.97;;;1.85;;
24559;SDS011;12727;49.934;8.656;2024-02-04T04:28:10;2.00;;;1.60;;
24559;SDS011;12727;49.934;8.656;2024-02-04T04:30:36;4.20;;;1.98;;
24559;SDS011;12727;49.934;8.656;2024-02-04T04:33:02;2.22;;;1.90;;
24559;SDS011;12727;49.934;8.656;2024-02-04T04:35:27;3.63;;;2.10;;
24559;SDS011;12727;49.934;8.656;2024-02-04T04:37:53;1.85;;;1.63;;
24559;SDS011;12727;49.934;8.656;2024-02-04T04:40:18;2.47;;;1.80;;
24559;SDS011;12727;49.934;8.656;2024-02-04T04:42:44;2.65;;;1.90;;
24559;SDS011;12727;49.934;8.656;2024-02-04T04:45:10;4.03;;;1.98;;
24559;SDS011;12727;49.934;8.656;2024-02-04T04:47:36;2.75;;;2.00;;
24559;SDS011;12727;49.934;8.656;2024-02-04T04:50:02;2.63;;;2.35;;
24559;SDS011;12727;49.934;8.656;2024-02-04T04:52:29;3.47;;;2.22;;
24559;SDS011;12727;49.934;8.656;2024-02-04T04:54:55;4.82;;;2.67;;
24559;SDS011;12727;49.934;8.656;2024-02-04T04:57:21;2.58;;;2.28;;
24559;SDS011;12727;49.934;8.656;2024-02-04T04:59:47;2.65;;;1.83;;
24559;SDS011;12727;49.934;8.656;2024-02-04T05:02:12;2.72;;;2.22;;
24559;SDS011;12727;49.934;8.656;2024-02-04T05:04:38;1.95;;;1.75;;
24559;SDS011;12727;49.934;8.656;2024-02-04T05:07:07;2.17;;;1.90;;
24559;SDS011;12727;49.934;8.656;2024-02-04T05:09:32;3.60;;;2.30;;
24559;SDS011;12727;49.934;8.656;2024-02-04T05:11:58;2.30;;;2.03;;
24559;SDS011;12727;49.934;8.656;2024-02-04T05:14:23;2.47;;;2.20;;
24559;SDS011;12727;49.934;8.656;2024-02-04T05:16:49;3.25;;;2.10;;
24559;SDS011;12727;49.934;8.656;2024-02-04T05:19:14;2.35;;;2.08;;
24559;SDS011;12727;49.934;8.656;2024-02-04T05:21:40;2.80;;;2.30;;
24559;SDS011;12727;49.934;8.656;2024-02-04T05:24:05;3.58;;;2.70;;
24559;SDS011;12727;49.934;8.656;2024-02-04T05:26:31;3.10;;;2.08;;
24559;SDS011;12727;49.934;8.656;2024-02-04T05:28:56;2.92;;;2.20;;
24559;SDS011;12727;49.934;8.656;2024-02-04T05:31:22;3.13;;;2.00;;
24559;SDS011;12727;49.934;8.656;2024-02-04T05:33:47;2.60;;;1.92;;
24559;SDS011;12727;49.934;8.656;2024-02-04T05:36:13;2.70;;;1.95;;
24559;SDS011;12727;49.934;8.656;2024-02-04T05:38:38;2.08;;;1.50;;
24559;SDS011;12727;49.934;8.656;2024-02-04T05:41:04;2.05;;;1.45;;
24559;SDS011;12727;49.934;8.656;2024-02-04T05:43:30;2.72;;;1.70;;
24559;SDS011;12727;49.934;8.656;2024-02-04T05:45:55;2.60;;;1.58;;
24559;SDS011;12727;49.934;8.656;2024-02-04T05:48:21;1.45;;;1.05;;
24559;SDS011;12727;49.934;8.656;2024-02-04T05:50:46;1.45;;;1.27;;
24559;SDS011;12727;49.934;8.656;2024-02-04T05:53:12;1.58;;;1.00;;
24559;SDS011;12727;49.934;8.656;2024-02-04T05:55:38;1.40;;;1.30;;
24559;SDS011;12727;49.934;8.656;2024-02-04T05:58:04;1.83;;;0.90;;
24559;SDS011;12727;49.934;8.656;2024-02-04T06:00:29;1.23;;;0.90;;
24559;SDS011;12727;49.934;8.656;2024-02-04T06:02:55;2.03;;;1.10;;
24559;SDS011;12727;49.934;8.656;2024-02-04T06:05:21;1.02;;;0.82;;
24559;SDS011;12727;49.934;8.656;2024-02-04T06:07:46;2.47;;;0.93;;
24559;SDS011;12727;49.934;8.656;2024-02-04T06:10:12;1.88;;;1.30;;
24559;SDS011;12727;49.934;8.656;2024-02-04T06:12:37;1.42;;;1.15;;
24559;SDS011;12727;49.934;8.656;2024-02-04T06:15:06;1.30;;;1.00;;
24559;SDS011;12727;49.934;8.656;2024-02-04T06:17:36;3.10;;;1.13;;
24559;SDS011;12727;49.934;8.656;2024-02-04T06:20:02;1.10;;;0.90;;
24559;SDS011;12727;49.934;8.656;2024-02-04T06:22:28;1.75;;;1.00;;
24559;SDS011;12727;49.934;8.656;2024-02-04T06:24:53;1.42;;;0.88;;
24559;SDS011;12727;49.934;8.656;2024-02-04T06:27:19;2.60;;;1.00;;
24559;SDS011;12727;49.934;8.656;2024-02-04T06:29:44;2.00;;;1.20;;
24559;SDS011;12727;49.934;8.656;2024-02-04T06:32:10;0.93;;;0.82;;
24559;SDS011;12727;49.934;8.656;2024-02-04T06:34:36;1.10;;;0.90;;
24559;SDS011;12727;49.934;8.656;2024-02-04T06:37:02;1.40;;;0.82;;
24559;SDS011;12727;49.934;8.656;2024-02-04T06:39:27;1.15;;;0.88;;
24559;SDS011;12727;49.934;8.656;2024-02-04T06:41:53;2.05;;;0.90;;
24559;SDS011;12727;49.934;8.656;2024-02-04T06:44:18;1.42;;;0.88;;
24559;SDS011;12727;49.934;8.656;2024-02-04T06:46:44;1.55;;;0.90;;
24559;SDS011;12727;49.934;8.656;2024-02-04T06:49:10;1.17;;;0.80;;
24559;SDS011;12727;49.934;8.656;2024-02-04T06:51:35;0.75;;;0.70;;
24559;SDS011;12727;49.934;8.656;2024-02-04T06:54:01;0.98;;;0.80;;
24559;SDS011;12727;49.934;8.656;2024-02-04T06:56:26;0.68;;;0.68;;
24559;SDS011;12727;49.934;8.656;2024-02-04T06:58:52;3.40;;;0.60;;
24559;SDS011;12727;49.934;8.656;2024-02-04T07:01:18;2.08;;;0.73;;
24559;SDS011;12727;49.934;8.656;2024-02-04T07:03:43;0.77;;;0.65;;
24559;SDS011;12727;49.934;8.656;2024-02-04T07:06:09;1.35;;;0.70;;
24559;SDS011;12727;49.934;8.656;2024-02-04T07:08:35;1.05;;;0.73;;
24559;SDS011;12727;49.934;8.656;2024-02-04T07:11:01;2.35;;;0.80;;
24559;SDS011;12727;49.934;8.656;2024-02-04T07:13:27;0.90;;;0.70;;
24559;SDS011;12727;49.934;8.656;2024-02-04T07:15:53;1.10;;;0.50;;
24559;SDS011;12727;49.934;8.656;2024-02-04T07:18:19;0.73;;;0.55;;
24559;SDS011;12727;49.934;8.656;2024-02-04T07:20:47;0.80;;;0.80;;
24559;SDS011;12727;49.934;8.656;2024-02-04T07:23:13;0.77;;;0.50;;
24559;SDS011;12727;49.934;8.656;2024-02-04T07:25:38;0.70;;;0.45;;
24559;SDS011;12727;49.934;8.656;2024-02-04T07:28:04;1.13;;;0.50;;
24559;SDS011;12727;49.934;8.656;2024-02-04T07:30:29;0.63;;;0.40;;
24559;SDS011;12727;49.934;8.656;2024-02-04T07:32:55;0.50;;;0.40;;
24559;SDS011;12727;49.934;8.656;2024-02-04T07:35:20;0.60;;;0.40;;
24559;SDS011;12727;49.934;8.656;2024-02-04T07:37:46;0.28;;;0.20;;
24559;SDS011;12727;49.934;8.656;2024-02-04T07:40:12;0.95;;;0.40;;
24559;SDS011;12727;49.934;8.656;2024-02-04T07:42:37;1.23;;;0.70;;
24559;SDS011;12727;49.934;8.656;2024-02-04T07:45:03;1.27;;;0.40;;
24559;SDS011;12727;49.934;8.656;2024-02-04T07:47:33;0.70;;;0.30;;
24559;SDS011;12727;49.934;8.656;2024-02-04T07:49:59;1.00;;;0.30;;
24559;SDS011;12727;49.934;8.656;2024-02-04T07:52:25;0.52;;;0.30;;
24559;SDS011;12727;49.934;8.656;2024-02-04T07:54:50;0.30;;;0.20;;
24559;SDS011;12727;49.934;8.656;2024-02-04T07:57:16;0.45;;;0.20;;
24559;SDS011;12727;49.934;8.656;2024-02-04T07:59:41;0.60;;;0.20;;
24559;SDS011;12727;49.934;8.656;2024-02-04T08:02:08;0.40;;;0.30;;
24559;SDS011;12727;49.934;8.656;2024-02-04T08:04:33;1.58;;;0.20;;
24559;SDS011;12727;49.934;8.656;2024-02-04T08:06:59;0.40;;;0.20;;
24559;SDS011;12727;49.934;8.656;2024-02-04T08:09:25;0.40;;;0.20;;
24559;SDS011;12727;49.934;8.656;2024-02-04T08:11:51;0.32;;;0.30;;
24559;SDS011;12727;49.934;8.656;2024-02-04T08:14:16;0.20;;;0.20;;
24559;SDS011;12727;49.934;8.656;2024-02-04T08:16:42;0.57;;;0.30;;
24559;SDS011;12727;49.934;8.656;2024-02-04T08:19:08;1.05;;;0.30;;
24559;SDS011;12727;49.934;8.656;2024-02-04T08:21:34;0.20;;;0.20;;
24559;SDS011;12727;49.934;8.656;2024-02-04T08:23:59;0.30;;;0.20;;
24559;SDS011;12727;49.934;8.656;2024-02-04T08:26:25;0.17;;;0.10;;
24559;SDS011;12727;49.934;8.656;2024-02-04T08:28:50;0.20;;;0.20;;
24559;SDS011;12727;49.934;8.656;2024-02-04T08:31:16;0.77;;;0.30;;
24559;SDS011;12727;49.934;8.656;2024-02-04T08:33:42;0.55;;;0.20;;
24559;SDS011;12727;49.934;8.656;2024-02-04T08:36:07;1.17;;;0.47;;
24559;SDS011;12727;49.934;8.656;2024-02-04T08:38:35;0.43;;;0.30;;
24559;SDS011;12727;49.934;8.656;2024-02-04T08:41:02;0.77;;;0.20;;
24559;SDS011;12727;49.934;8.656;2024-02-04T08:43:28;0.65;;;0.20;;
24559;SDS011;12727;49.934;8.656;2024-02-04T08:45:54;0.40;;;0.30;;
24559;SDS011;12727;49.934;8.656;2024-02-04T08:48:19;0.25;;;0.15;;
24559;SDS011;12727;49.934;8.656;2024-02-04T08:50:45;0.40;;;0.30;;
24559;SDS011;12727;49.934;8.656;2024-02-04T08:53:10;0.20;;;0.10;;
24559;SDS011;12727;49.934;8.656;2024-02-04T08:55:36;0.50;;;0.38;;
24559;SDS011;12727;49.934;8.656;2024-02-04T08:58:01;0.45;;;0.17;;
24559;SDS011;12727;49.934;8.656;2024-02-04T09:00:27;0.63;;;0.10;;
24559;SDS011;12727;49.934;8.656;2024-02-04T09:02:52;0.73;;;0.20;;
24559;SDS011;12727;49.934;8.656;2024-02-04T09:05:18;0.30;;;0.20;;
24559;SDS011;12727;49.934;8.656;2024-02-04T09:07:45;0.73;;;0.30;;
24559;SDS011;12727;49.934;8.656;2024-02-04T09:10:11;0.70;;;0.20;;
24559;SDS011;12727;49.934;8.656;2024-02-04T09:12:37;0.73;;;0.22;;
24559;SDS011;12727;49.934;8.656;2024-02-04T09:15:03;0.40;;;0.20;;
24559;SDS011;12727;49.934;8.656;2024-02-04T09:17:29;0.35;;;0.25;;
24559;SDS011;12727;49.934;8.656;2024-02-04T09:19:57;0.32;;;0.20;;
24559;SDS011;12727;49.934;8.656;2024-02-04T09:22:22;0.20;;;0.20;;
24559;SDS011;12727;49.934;8.656;2024-02-04T09:24:48;0.30;;;0.25;;
24559;SDS011;12727;49.934;8.656;2024-02-04T09:27:15;0.60;;;0.20;;
24559;SDS011;12727;49.934;8.656;2024-02-04T09:29:40;0.60;;;0.32;;
24559;SDS011;12727;49.934;8.656;2024-02-04T09:32:06;0.35;;;0.20;;
24559;SDS011;12727;49.934;8.656;2024-02-04T09:34:32;0.35;;;0.20;;
24559;SDS011;12727;49.934;8.656;2024-02-04T09:36:58;0.50;;;0.20;;
24559;SDS011;12727;49.934;8.656;2024-02-04T09:39:24;0.45;;;0.20;;
24559;SDS011;12727;49.934;8.656;2024-02-04T09:41:49;0.40;;;0.30;;
24559;SDS011;12727;49.934;8.656;2024-02-04T09:44:15;0.30;;;0.22;;
24559;SDS011;12727;49.934;8.656;2024-02-04T09:46:41;0.50;;;0.30;;
24559;SDS011;12727;49.934;8.656;2024-02-04T09:49:07;0.70;;;0.30;;
24559;SDS011;12727;49.934;8.656;2024-02-04T09:51:33;0.85;;;0.30;;
24559;SDS011;12727;49.934;8.656;2024-02-04T09:54:02;0.40;;;0.20;;
24559;SDS011;12727;49.934;8.656;2024-02-04T09:56:31;0.95;;;0.40;;
24559;SDS011;12727;49.934;8.656;2024-02-04T09:58:58;0.60;;;0.38;;
24559;SDS011;12727;49.934;8.656;2024-02-04T10:01:23;0.43;;;0.30;;
24559;SDS011;12727;49.934;8.656;2024-02-04T10:03:49;0.60;;;0.30;;
24559;SDS011;12727;49.934;8.656;2024-02-04T10:06:18;1.00;;;0.30;;
24559;SDS011;12727;49.934;8.656;2024-02-04T10:08:43;0.60;;;0.30;;
24559;SDS011;12727;49.934;8.656;2024-02-04T10:11:11;0.40;;;0.20;;
24559;SDS011;12727;49.934;8.656;2024-02-04T10:13:44;0.30;;;0.30;;
24559;SDS011;12727;49.934;8.656;2024-02-04T10:16:13;0.30;;;0.20;;
24559;SDS011;12727;49.934;8.656;2024-02-04T10:18:46;0.30;;;0.30;;
24559;SDS011;12727;49.934;8.656;2024-02-04T10:21:17;0.60;;;0.50;;
24559;SDS011;12727;49.934;8.656;2024-02-04T10:23:44;1.00;;;0.40;;
24559;SDS011;12727;49.934;8.656;2024-02-04T10:26:13;0.57;;;0.40;;
24559;SDS011;12727;49.934;8.656;2024-02-04T10:28:39;0.63;;;0.32;;
24559;SDS011;12727;49.934;8.656;2024-02-04T10:31:08;0.55;;;0.50;;
24559;SDS011;12727;49.934;8.656;2024-02-04T10:33:35;0.98;;;0.45;;
24559;SDS011;12727;49.934;8.656;2024-02-04T10:36:01;0.90;;;0.30;;
24559;SDS011;12727;49.934;8.656;2024-02-04T10:38:27;0.52;;;0.20;;
24559;SDS011;12727;49.934;8.656;2024-02-04T10:40:53;0.77;;;0.30;;
24559;SDS011;12727;49.934;8.656;2024-02-04T10:43:22;0.93;;;0.40;;
24559;SDS011;12727;49.934;8.656;2024-02-04T10:45:49;1.02;;;0.50;;
24559;SDS011;12727;49.934;8.656;2024-02-04T10:48:21;1.13;;;0.30;;
24559;SDS011;12727;49.934;8.656;2024-02-04T10:50:51;0.40;;;0.30;;
24559;SDS011;12727;49.934;8.656;2024-02-04T10:53:21;0.30;;;0.20;;
24559;SDS011;12727;49.934;8.656;2024-02-04T10:55:47;0.70;;;0.40;;
24559;SDS011;12727;49.934;8.656;2024-02-04T10:58:17;0.63;;;0.30;;
24559;SDS011;12727;49.934;8.656;2024-02-04T11:00:43;1.17;;;0.38;;
24559;SDS011;12727;49.934;8.656;2024-02-04T11:03:11;0.50;;;0.30;;
24559;SDS011;12727;49.934;8.656;2024-02-04T11:05:37;0.43;;;0.32;;
24559;SDS011;12727;49.934;8.656;2024-02-04T11:08:07;0.60;;;0.40;;
24559;SDS011;12727;49.934;8.656;2024-02-04T11:10:35;0.28;;;0.20;;
24559;SDS011;12727;49.934;8.656;2024-02-04T11:13:03;0.25;;;0.20;;
24559;SDS011;12727;49.934;8.656;2024-02-04T11:15:32;0.32;;;0.30;;
24559;SDS011;12727;49.934;8.656;2024-02-04T11:21:05;0.57;;;0.30;;
24559;SDS011;12727;49.934;8.656;2024-02-04T11:29:00;0.50;;;0.40;;
24559;SDS011;12727;49.934;8.656;2024-02-04T11:31:27;2.08;;;0.50;;
24559;SDS011;12727;49.934;8.656;2024-02-04T11:33:53;1.60;;;0.90;;
24559;SDS011;12727;49.934;8.656;2024-02-04T11:36:23;1.95;;;0.50;;
24559;SDS011;12727;49.934;8.656;2024-02-04T11:38:50;3.95;;;1.40;;
24559;SDS011;12727;49.934;8.656;2024-02-04T11:41:22;4.65;;;2.42;;
24559;SDS011;12727;49.934;8.656;2024-02-04T11:43:51;1.52;;;0.57;;
24559;SDS011;12727;49.934;8.656;2024-02-04T11:46:19;0.60;;;0.50;;
24559;SDS011;12727;49.934;8.656;2024-02-04T11:48:51;9.15;;;6.15;;
24559;SDS011;12727;49.934;8.656;2024-02-04T11:51:18;0.60;;;0.50;;
24559;SDS011;12727;49.934;8.656;2024-02-04T11:53:46;0.60;;;0.40;;
24559;SDS011;12727;49.934;8.656;2024-02-04T11:56:12;1.60;;;0.40;;
24559;SDS011;12727;49.934;8.656;2024-02-04T11:58:38;0.70;;;0.47;;
24559;SDS011;12727;49.934;8.656;2024-02-04T12:01:05;0.95;;;0.50;;
24559;SDS011;12727;49.934;8.656;2024-02-04T12:03:35;0.85;;;0.35;;
24559;SDS011;12727;49.934;8.656;2024-02-04T12:06:04;0.70;;;0.50;;
24559;SDS011;12727;49.934;8.656;2024-02-04T12:08:32;0.90;;;0.47;;
24559;SDS011;12727;49.934;8.656;2024-02-04T12:10:59;0.63;;;0.32;;
24559;SDS011;12727;49.934;8.656;2024-02-04T12:13:26;1.23;;;0.40;;
24559;SDS011;12727;49.934;8.656;2024-02-04T12:15:53;0.85;;;0.50;;
24559;SDS011;12727;49.934;8.656;2024-02-04T12:18:19;0.60;;;0.40;;
24559;SDS011;12727;49.934;8.656;2024-02-04T12:20:46;1.42;;;0.60;;
24559;SDS011;12727;49.934;8.656;2024-02-04T12:23:13;1.08;;;0.55;;
24559;SDS011;12727;49.934;8.656;2024-02-04T12:25:39;0.80;;;0.50;;
24559;SDS011;12727;49.934;8.656;2024-02-04T12:28:05;1.85;;;0.63;;
24559;SDS011;12727;49.934;8.656;2024-02-04T12:30:32;0.95;;;0.50;;
24559;SDS011;12727;49.934;8.656;2024-02-04T12:35:24;0.95;;;0.47;;
24559;SDS011;12727;49.934;8.656;2024-02-04T12:37:53;0.73;;;0.60;;
24559;SDS011;12727;49.934;8.656;2024-02-04T12:40:20;1.05;;;0.30;;
24559;SDS011;12727;49.934;8.656;2024-02-04T12:42:59;1.60;;;1.10;;
24559;SDS011;12727;49.934;8.656;2024-02-04T12:45:29;3.90;;;1.52;;
24559;SDS011;12727;49.934;8.656;2024-02-04T12:47:56;2.78;;;1.80;;
24559;SDS011;12727;49.934;8.656;2024-02-04T12:50:23;2.53;;;0.88;;
24559;SDS011;12727;49.934;8.656;2024-02-04T12:53:00;1.05;;;0.70;;
24559;SDS011;12727;49.934;8.656;2024-02-04T12:55:36;0.80;;;0.43;;
24559;SDS011;12727;49.934;8.656;2024-02-04T12:58:05;0.88;;;0.70;;
24559;SDS011;12727;49.934;8.656;2024-02-04T13:00:39;0.50;;;0.47;;
24559;SDS011;12727;49.934;8.656;2024-02-04T13:03:06;1.13;;;0.60;;
24559;SDS011;12727;49.934;8.656;2024-02-04T13:05:36;0.75;;;0.60;;
24559;SDS011;12727;49.934;8.656;2024-02-04T13:08:03;1.13;;;0.63;;
24559;SDS011;12727;49.934;8.656;2024-02-04T13:10:30;0.90;;;0.70;;
24559;SDS011;12727;49.934;8.656;2024-02-04T13:15:46;2.42;;;0.68;;
24559;SDS011;12727;49.934;8.656;2024-02-04T13:18:12;0.82;;;0.70;;
24559;SDS011;12727;49.934;8.656;2024-02-04T13:20:41;1.33;;;0.80;;
24559;SDS011;12727;49.934;8.656;2024-02-04T13:23:10;1.42;;;0.60;;
24559;SDS011;12727;49.934;8.656;2024-02-04T13:25:36;0.55;;;0.50;;
24559;SDS011;12727;49.934;8.656;2024-02-04T13:28:02;1.60;;;0.80;;
24559;SDS011;12727;49.934;8.656;2024-02-04T13:30:29;0.70;;;0.60;;
24559;SDS011;12727;49.934;8.656;2024-02-04T13:32:55;1.92;;;0.73;;
24559;SDS011;12727;49.934;8.656;2024-02-04T13:35:22;1.38;;;0.65;;
24559;SDS011;12727;49.934;8.656;2024-02-04T13:37:48;1.08;;;0.50;;
24559;SDS011;12727;49.934;8.656;2024-02-04T13:40:18;1.55;;;0.80;;
24559;SDS011;12727;49.934;8.656;2024-02-04T13:42:44;0.60;;;0.50;;
24559;SDS011;12727;49.934;8.656;2024-02-04T13:45:11;1.20;;;0.70;;
24559;SDS011;12727;49.934;8.656;2024-02-04T13:47:39;1.27;;;0.57;;
24559;SDS011;12727;49.934;8.656;2024-02-04T13:50:05;1.23;;;0.73;;
24559;SDS011;12727;49.934;8.656;2024-02-04T13:52:33;1.40;;;1.00;;
24559;SDS011;12727;49.934;8.656;2024-02-04T13:54:59;1.35;;;0.55;;
24559;SDS011;12727;49.934;8.656;2024-02-04T13:57:24;1.00;;;0.50;;
24559;SDS011;12727;49.934;8.656;2024-02-04T13:59:50;1.08;;;0.60;;
24559;SDS011;12727;49.934;8.656;2024-02-04T14:02:16;1.35;;;0.68;;
24559;SDS011;12727;49.934;8.656;2024-02-04T14:04:41;1.00;;;0.45;;
24559;SDS011;12727;49.934;8.656;2024-02-04T14:07:07;1.42;;;0.90;;
24559;SDS011;12727;49.934;8.656;2024-02-04T14:09:34;1.17;;;0.73;;
24559;SDS011;12727;49.934;8.656;2024-02-04T14:12:01;2.03;;;1.10;;
24559;SDS011;12727;49.934;8.656;2024-02-04T14:14:28;0.80;;;0.60;;
24559;SDS011;12727;49.934;8.656;2024-02-04T14:16:53;0.90;;;0.60;;
24559;SDS011;12727;49.934;8.656;2024-02-04T14:19:19;1.10;;;0.68;;
24559;SDS011;12727;49.934;8.656;2024-02-04T14:21:45;1.10;;;0.70;;
24559;SDS011;12727;49.934;8.656;2024-02-04T14:24:10;2.70;;;1.30;;
24559;SDS011;12727;49.934;8.656;2024-02-04T14:26:36;1.58;;;0.60;;
24559;SDS011;12727;49.934;8.656;2024-02-04T14:29:01;0.40;;;0.40;;
24559;SDS011;12727;49.934;8.656;2024-02-04T14:31:27;0.30;;;0.30;;
24559;SDS011;12727;49.934;8.656;2024-02-04T14:33:52;0.77;;;0.60;;
24559;SDS011;12727;49.934;8.656;2024-02-04T14:36:18;0.50;;;0.40;;
24559;SDS011;12727;49.934;8.656;2024-02-04T14:38:44;1.42;;;0.95;;
24559;SDS011;12727;49.934;8.656;2024-02-04T14:41:10;1.20;;;0.80;;
24559;SDS011;12727;49.934;8.656;2024-02-04T14:43:36;0.60;;;0.40;;
24559;SDS011;12727;49.934;8.656;2024-02-04T14:46:01;1.45;;;0.30;;
24559;SDS011;12727;49.934;8.656;2024-02-04T14:48:27;0.75;;;0.40;;
24559;SDS011;12727;49.934;8.656;2024-02-04T14:50:53;1.23;;;0.50;;
24559;SDS011;12727;49.934;8.656;2024-02-04T14:53:19;0.88;;;0.43;;
24559;SDS011;12727;49.934;8.656;2024-02-04T14:55:45;0.88;;;0.40;;
24559;SDS011;12727;49.934;8.656;2024-02-04T14:58:10;0.65;;;0.50;;